Time;durP1;ratioP1;P1;durP2;ratioP2;P2;SDS_P1;SDS_P2;PMS_P1;PMS_P2;Temp;Humidity;BMP_temperature;BMP_pressure;BME280_temperature;BME280_humidity;BME280_pressure;Samples;Min_cycle;Max_cycle;Signal;HPM_P1;HPM_P2
2022/08/31 00:04:01;;;;;;;3.00;0.90;;;;;;;;;;2300774;58;21002;-76
2022/08/31 00:06:29;;;;;;;3.53;1.00;;;;;;;;;;2300675;58;21054;-75
2022/08/31 00:08:56;;;;;;;1.00;0.82;;;;;;;;;;2538376;54;21070;-75
2022/08/31 00:11:28;;;;;;;1.30;0.93;;;;;;;;;;2300168;58;21047;-76
2022/08/31 00:13:56;;;;;;;1.12;0.73;;;;;;;;;;2300634;58;21047;-76
2022/08/31 00:16:24;;;;;;;2.58;1.17;;;;;;;;;;2300166;58;21061;-75
2022/08/31 00:18:51;;;;;;;1.00;0.90;;;;;;;;;;2539074;54;21058;-73
2022/08/31 00:21:19;;;;;;;2.45;1.30;;;;;;;;;;2300920;58;21057;-75
2022/08/31 00:23:46;;;;;;;2.08;1.23;;;;;;;;;;2301348;58;21139;-76
2022/08/31 00:26:13;;;;;;;1.40;0.90;;;;;;;;;;2300604;58;21070;-73
2022/08/31 00:28:40;;;;;;;1.60;0.88;;;;;;;;;;2538258;54;21062;-75
2022/08/31 00:31:07;;;;;;;0.73;0.57;;;;;;;;;;2300286;58;21137;-75
2022/08/31 00:33:35;;;;;;;3.30;1.00;;;;;;;;;;2301230;58;21132;-77
2022/08/31 00:36:03;;;;;;;1.55;1.00;;;;;;;;;;2538122;54;21126;-76
2022/08/31 00:38:30;;;;;;;1.40;0.85;;;;;;;;;;2300488;58;21326;-76
2022/08/31 00:40:57;;;;;;;2.28;0.82;;;;;;;;;;2301586;58;21623;-77
2022/08/31 00:43:35;;;;;;;1.92;1.10;;;;;;;;;;2538259;54;21133;-75
2022/08/31 00:46:02;;;;;;;1.25;0.93;;;;;;;;;;2300422;58;21070;-77
2022/08/31 00:48:29;;;;;;;1.10;0.88;;;;;;;;;;2302105;58;21067;-76
2022/08/31 00:50:57;;;;;;;2.92;1.23;;;;;;;;;;2301066;58;21106;-77
2022/08/31 00:53:24;;;;;;;2.05;1.17;;;;;;;;;;2301244;58;21129;-77
2022/08/31 00:55:51;;;;;;;1.20;0.82;;;;;;;;;;2299875;58;21146;-76
2022/08/31 00:58:19;;;;;;;2.50;1.12;;;;;;;;;;2300817;58;21050;-77
2022/08/31 01:00:46;;;;;;;2.35;0.90;;;;;;;;;;2301743;58;21134;-76
2022/08/31 01:03:13;;;;;;;1.10;0.90;;;;;;;;;;2300932;58;21066;-76
2022/08/31 01:05:40;;;;;;;1.60;0.90;;;;;;;;;;2539581;53;21821;-78
2022/08/31 01:08:07;;;;;;;2.70;1.25;;;;;;;;;;2311232;58;21110;-78
2022/08/31 01:10:36;;;;;;;1.45;1.10;;;;;;;;;;2310948;58;21050;-78
2022/08/31 01:13:03;;;;;;;1.00;0.93;;;;;;;;;;2321035;57;21169;-78
2022/08/31 01:15:31;;;;;;;1.58;1.20;;;;;;;;;;2332639;57;21062;-78
2022/08/31 01:18:00;;;;;;;1.17;0.90;;;;;;;;;;2333788;57;21726;-78
2022/08/31 01:20:29;;;;;;;3.83;0.90;;;;;;;;;;2333264;57;21610;-78
2022/08/31 01:23:04;;;;;;;1.23;1.12;;;;;;;;;;2333931;57;21058;-78
2022/08/31 01:25:31;;;;;;;1.10;1.00;;;;;;;;;;2333184;57;21588;-78
2022/08/31 01:27:59;;;;;;;1.85;0.93;;;;;;;;;;2333129;57;21555;-78
2022/08/31 01:30:26;;;;;;;1.45;1.00;;;;;;;;;;2334260;57;21058;-78
2022/08/31 01:32:53;;;;;;;1.02;0.90;;;;;;;;;;2333851;57;21925;-78
2022/08/31 01:35:20;;;;;;;1.85;1.10;;;;;;;;;;2333848;57;21058;-78
2022/08/31 01:37:48;;;;;;;5.62;1.10;;;;;;;;;;2333416;57;21516;-78
2022/08/31 01:40:15;;;;;;;2.22;1.00;;;;;;;;;;2333550;57;21161;-78
2022/08/31 01:42:42;;;;;;;1.73;1.17;;;;;;;;;;2334138;57;21046;-78
2022/08/31 01:45:11;;;;;;;1.17;0.90;;;;;;;;;;2333917;57;21058;-78
2022/08/31 01:47:38;;;;;;;1.15;0.80;;;;;;;;;;2334078;57;21070;-78
2022/08/31 01:50:06;;;;;;;1.75;1.00;;;;;;;;;;2334133;57;21536;-78
2022/08/31 01:52:35;;;;;;;0.90;0.90;;;;;;;;;;2333428;57;21058;-79
2022/08/31 01:55:04;;;;;;;1.92;1.17;;;;;;;;;;2333173;57;21552;-78
2022/08/31 01:57:31;;;;;;;1.30;1.00;;;;;;;;;;2334127;57;22234;-78
2022/08/31 01:59:59;;;;;;;0.80;0.80;;;;;;;;;;2333936;57;21069;-78
2022/08/31 02:02:26;;;;;;;0.95;0.93;;;;;;;;;;2334143;57;21038;-78
2022/08/31 02:04:53;;;;;;;2.55;1.10;;;;;;;;;;2333749;57;21372;-78
2022/08/31 02:07:20;;;;;;;0.82;0.82;;;;;;;;;;2333212;57;21185;-78
2022/08/31 02:09:47;;;;;;;1.23;0.85;;;;;;;;;;2333739;57;21837;-79
2022/08/31 02:12:14;;;;;;;1.00;0.90;;;;;;;;;;2333623;57;21060;-78
2022/08/31 02:14:42;;;;;;;1.10;1.00;;;;;;;;;;2334069;57;21018;-78
2022/08/31 02:17:09;;;;;;;1.02;0.93;;;;;;;;;;2333711;57;21157;-79
2022/08/31 02:19:36;;;;;;;1.58;0.90;;;;;;;;;;2334683;57;21034;-78
2022/08/31 02:22:03;;;;;;;0.95;0.85;;;;;;;;;;2333520;57;21054;-79
2022/08/31 02:24:30;;;;;;;0.98;0.77;;;;;;;;;;2334286;57;21600;-78
2022/08/31 02:26:57;;;;;;;1.25;0.90;;;;;;;;;;2577899;53;21705;-79
2022/08/31 02:29:24;;;;;;;1.62;1.02;;;;;;;;;;2333161;57;21050;-79
2022/08/31 02:31:51;;;;;;;1.48;0.93;;;;;;;;;;2334076;57;21058;-78
2022/08/31 02:34:18;;;;;;;1.50;1.15;;;;;;;;;;2334507;57;21058;-79
2022/08/31 02:36:46;;;;;;;0.98;0.82;;;;;;;;;;2334203;57;21054;-79
2022/08/31 02:39:13;;;;;;;1.37;1.10;;;;;;;;;;2578603;53;21160;-79
2022/08/31 02:41:40;;;;;;;1.20;1.00;;;;;;;;;;2334576;57;21130;-79
2022/08/31 02:44:07;;;;;;;1.83;1.20;;;;;;;;;;2334168;57;21117;-79
2022/08/31 02:46:35;;;;;;;2.08;0.98;;;;;;;;;;2333348;57;21771;-79
2022/08/31 02:49:02;;;;;;;1.45;1.10;;;;;;;;;;2334606;57;21592;-79
2022/08/31 02:51:29;;;;;;;1.10;1.00;;;;;;;;;;2334579;57;21663;-79
2022/08/31 02:53:56;;;;;;;1.95;1.17;;;;;;;;;;2333888;57;21054;-78
2022/08/31 02:56:24;;;;;;;0.77;0.77;;;;;;;;;;2333541;57;21153;-79
2022/08/31 02:58:53;;;;;;;1.65;1.12;;;;;;;;;;2334239;57;21074;-79
2022/08/31 03:01:21;;;;;;;1.73;1.25;;;;;;;;;;2334723;57;21046;-78
2022/08/31 03:03:48;;;;;;;3.22;1.00;;;;;;;;;;2333249;57;21122;-79
2022/08/31 03:06:16;;;;;;;1.77;1.27;;;;;;;;;;2333435;57;21066;-79
2022/08/31 03:08:43;;;;;;;2.72;1.10;;;;;;;;;;2333742;57;21509;-79
2022/08/31 03:11:10;;;;;;;7.70;1.55;;;;;;;;;;2334107;57;21375;-78
2022/08/31 03:13:37;;;;;;;1.35;1.00;;;;;;;;;;2333565;57;21608;-79
2022/08/31 03:16:05;;;;;;;1.55;1.15;;;;;;;;;;2578727;53;21508;-79
2022/08/31 03:18:32;;;;;;;1.35;1.20;;;;;;;;;;2334286;57;21096;-79
2022/08/31 03:20:59;;;;;;;1.20;1.10;;;;;;;;;;2334521;57;21042;-79
2022/08/31 03:23:26;;;;;;;1.35;1.25;;;;;;;;;;2334248;57;21073;-79
2022/08/31 03:25:53;;;;;;;1.10;0.82;;;;;;;;;;2333899;57;21109;-79
2022/08/31 03:28:20;;;;;;;2.05;1.37;;;;;;;;;;2334399;57;21093;-79
2022/08/31 03:30:47;;;;;;;2.30;0.90;;;;;;;;;;2333862;57;21967;-78
2022/08/31 03:33:15;;;;;;;1.48;1.08;;;;;;;;;;2332692;57;21145;-79
2022/08/31 03:35:43;;;;;;;1.48;1.17;;;;;;;;;;2333058;57;21058;-79
2022/08/31 03:38:11;;;;;;;1.42;1.12;;;;;;;;;;2333753;57;21141;-79
2022/08/31 03:40:38;;;;;;;1.00;0.90;;;;;;;;;;2334280;57;21090;-79
2022/08/31 03:43:10;;;;;;;1.37;1.10;;;;;;;;;;2332376;57;21070;-79
2022/08/31 03:45:37;;;;;;;1.58;1.25;;;;;;;;;;2333949;57;21137;-78
2022/08/31 03:48:06;;;;;;;1.10;0.80;;;;;;;;;;2576687;53;21058;-79
2022/08/31 03:50:33;;;;;;;1.40;1.00;;;;;;;;;;2331991;57;21148;-78
2022/08/31 03:53:02;;;;;;;1.20;1.00;;;;;;;;;;2576951;53;21110;-78
2022/08/31 03:55:30;;;;;;;1.58;1.02;;;;;;;;;;2333107;57;21106;-78
2022/08/31 03:57:57;;;;;;;3.33;1.15;;;;;;;;;;2333720;57;21037;-80
2022/08/31 04:00:25;;;;;;;1.15;1.00;;;;;;;;;;2332924;57;21094;-79
2022/08/31 04:02:52;;;;;;;3.37;1.30;;;;;;;;;;2577560;53;21058;-78
2022/08/31 04:05:20;;;;;;;1.20;1.10;;;;;;;;;;2331340;57;21571;-78
2022/08/31 04:07:47;;;;;;;1.30;1.20;;;;;;;;;;2333959;57;21050;-78
2022/08/31 04:10:14;;;;;;;1.30;1.20;;;;;;;;;;2332983;57;21608;-79
2022/08/31 04:12:41;;;;;;;1.35;1.15;;;;;;;;;;2334341;57;21062;-78
2022/08/31 04:15:10;;;;;;;1.40;1.15;;;;;;;;;;2334000;57;21654;-78
2022/08/31 04:17:37;;;;;;;1.50;1.12;;;;;;;;;;2333319;57;21537;-78
2022/08/31 04:20:05;;;;;;;1.40;1.00;;;;;;;;;;2331303;57;21600;-77
2022/08/31 04:22:32;;;;;;;2.12;1.30;;;;;;;;;;2333456;57;21622;-79
2022/08/31 04:24:59;;;;;;;2.22;1.12;;;;;;;;;;2333011;57;21504;-78
2022/08/31 04:27:26;;;;;;;1.77;1.20;;;;;;;;;;2332995;57;21034;-78
2022/08/31 04:29:53;;;;;;;1.00;0.90;;;;;;;;;;2333470;57;21137;-79
2022/08/31 04:32:20;;;;;;;1.15;1.05;;;;;;;;;;2333673;57;21042;-78
2022/08/31 04:34:48;;;;;;;2.10;0.90;;;;;;;;;;2332840;57;21070;-78
2022/08/31 04:37:15;;;;;;;3.00;1.10;;;;;;;;;;2333248;57;21074;-78
2022/08/31 04:39:43;;;;;;;1.48;1.20;;;;;;;;;;2334658;57;21074;-78
2022/08/31 04:42:10;;;;;;;1.30;1.10;;;;;;;;;;2334525;57;21061;-78
2022/08/31 04:44:38;;;;;;;1.48;1.20;;;;;;;;;;2334600;57;21352;-78
2022/08/31 04:47:07;;;;;;;1.52;1.12;;;;;;;;;;2333754;57;21132;-79
2022/08/31 04:49:34;;;;;;;1.30;1.20;;;;;;;;;;2330516;57;21081;-78
2022/08/31 04:52:01;;;;;;;1.20;1.08;;;;;;;;;;2332263;57;21054;-79
2022/08/31 04:54:28;;;;;;;1.17;1.05;;;;;;;;;;2333269;57;21046;-77
2022/08/31 04:56:57;;;;;;;2.33;1.17;;;;;;;;;;2332205;57;21141;-79
2022/08/31 04:59:26;;;;;;;1.45;1.30;;;;;;;;;;2333082;57;21050;-79
2022/08/31 05:01:54;;;;;;;1.55;1.20;;;;;;;;;;2333479;57;21042;-79
2022/08/31 05:04:23;;;;;;;2.67;1.17;;;;;;;;;;2333438;57;21300;-79
2022/08/31 05:06:51;;;;;;;1.20;1.05;;;;;;;;;;2333804;57;21106;-78
2022/08/31 05:09:19;;;;;;;2.05;1.10;;;;;;;;;;2333653;57;21090;-78
2022/08/31 05:11:46;;;;;;;1.60;1.30;;;;;;;;;;2332931;57;21030;-79
2022/08/31 05:14:13;;;;;;;1.98;1.50;;;;;;;;;;2332217;57;21042;-79
2022/08/31 05:16:40;;;;;;;2.67;2.03;;;;;;;;;;2333058;57;21117;-80
2022/08/31 05:19:08;;;;;;;1.62;1.42;;;;;;;;;;2333391;57;21074;-78
2022/08/31 05:21:36;;;;;;;2.28;1.80;;;;;;;;;;2333155;57;21038;-78
2022/08/31 05:24:05;;;;;;;3.00;1.85;;;;;;;;;;2332942;57;21086;-78
2022/08/31 05:26:34;;;;;;;1.33;1.20;;;;;;;;;;2333373;57;21734;-78
2022/08/31 05:29:02;;;;;;;1.90;1.10;;;;;;;;;;2577961;53;21062;-78
2022/08/31 05:31:30;;;;;;;1.83;1.52;;;;;;;;;;2334182;57;21632;-78
2022/08/31 05:33:57;;;;;;;1.37;1.15;;;;;;;;;;2333755;57;21509;-78
2022/08/31 05:39:01;;;;;;;1.75;1.50;;;;;;;;;;2604469;52;22102;-78
2022/08/31 05:41:29;;;;;;;2.20;1.23;;;;;;;;;;2346933;57;21161;-78
2022/08/31 05:43:56;;;;;;;4.03;1.40;;;;;;;;;;2369701;56;21549;-77
2022/08/31 05:46:23;;;;;;;1.20;1.10;;;;;;;;;;2374674;56;21115;-78
2022/08/31 05:48:50;;;;;;;1.30;1.20;;;;;;;;;;2375455;56;21098;-78
2022/08/31 05:51:18;;;;;;;1.42;1.33;;;;;;;;;;2375265;56;21046;-78
2022/08/31 05:53:45;;;;;;;1.45;1.30;;;;;;;;;;2374904;56;21047;-78
2022/08/31 05:56:13;;;;;;;1.87;1.65;;;;;;;;;;2374961;56;21062;-78
2022/08/31 05:58:41;;;;;;;2.75;1.80;;;;;;;;;;2375379;56;21525;-78
2022/08/31 06:01:13;;;;;;;2.95;1.70;;;;;;;;;;2375637;56;21031;-78
2022/08/31 06:03:40;;;;;;;2.10;1.62;;;;;;;;;;2375472;56;21114;-77
2022/08/31 06:06:08;;;;;;;2.17;1.75;;;;;;;;;;2374052;56;21054;-78
2022/08/31 06:08:36;;;;;;;2.62;2.03;;;;;;;;;;2628428;52;21050;-78
2022/08/31 06:11:03;;;;;;;3.20;1.73;;;;;;;;;;2628195;52;21135;-78
2022/08/31 06:13:30;;;;;;;2.17;1.77;;;;;;;;;;2375252;56;21125;-78
2022/08/31 06:15:58;;;;;;;3.85;2.70;;;;;;;;;;2374771;56;21027;-78
2022/08/31 06:18:25;;;;;;;1.87;1.50;;;;;;;;;;2375308;56;21586;-78
2022/08/31 06:21:01;;;;;;;2.05;1.80;;;;;;;;;;2375428;56;21046;-78
2022/08/31 06:23:28;;;;;;;2.20;1.45;;;;;;;;;;2627798;52;21039;-78
2022/08/31 06:26:01;;;;;;;1.55;1.45;;;;;;;;;;2374931;56;21031;-78
2022/08/31 06:28:31;;;;;;;4.20;1.65;;;;;;;;;;2375028;56;21594;-78
2022/08/31 06:30:58;;;;;;;5.00;1.50;;;;;;;;;;2375535;56;21093;-78
2022/08/31 06:33:25;;;;;;;1.35;1.25;;;;;;;;;;2375310;56;21123;-78
2022/08/31 06:35:53;;;;;;;4.07;2.08;;;;;;;;;;2374520;56;21145;-78
2022/08/31 06:38:20;;;;;;;1.58;1.48;;;;;;;;;;2375580;56;21043;-78
2022/08/31 06:40:47;;;;;;;1.87;1.50;;;;;;;;;;2374795;56;21039;-78
2022/08/31 06:43:14;;;;;;;1.87;1.20;;;;;;;;;;2375371;56;21114;-78
2022/08/31 06:45:41;;;;;;;2.53;1.67;;;;;;;;;;2374564;56;21109;-78
2022/08/31 06:48:08;;;;;;;2.15;1.95;;;;;;;;;;2374394;56;21122;-80
2022/08/31 06:50:37;;;;;;;2.25;1.60;;;;;;;;;;2374331;56;21035;-80
2022/08/31 06:53:05;;;;;;;1.98;1.37;;;;;;;;;;2373936;56;21051;-80
2022/08/31 06:55:32;;;;;;;2.12;1.75;;;;;;;;;;2374048;56;21063;-79
2022/08/31 06:57:59;;;;;;;3.17;2.12;;;;;;;;;;2373944;56;21629;-79
2022/08/31 07:00:26;;;;;;;3.45;2.05;;;;;;;;;;2374372;56;21051;-79
2022/08/31 07:02:53;;;;;;;2.70;1.90;;;;;;;;;;2374239;56;21349;-79
2022/08/31 07:05:20;;;;;;;2.87;1.80;;;;;;;;;;2417733;54;74255;-80
2022/08/31 07:07:47;;;;;;;3.03;1.77;;;;;;;;;;2541408;54;21050;-80
2022/08/31 07:10:14;;;;;;;7.72;2.30;;;;;;;;;;2303834;58;21086;-77
2022/08/31 07:12:41;;;;;;;2.95;1.70;;;;;;;;;;2541956;54;21074;-80
2022/08/31 07:15:09;;;;;;;1.95;1.50;;;;;;;;;;2542449;54;21078;-79
2022/08/31 07:17:36;;;;;;;3.42;1.50;;;;;;;;;;2542204;54;21642;-80
2022/08/31 07:20:03;;;;;;;2.60;1.27;;;;;;;;;;2543026;54;21098;-81
2022/08/31 07:22:30;;;;;;;2.30;1.50;;;;;;;;;;2543187;54;21078;-80
2022/08/31 07:24:57;;;;;;;2.85;1.40;;;;;;;;;;2542997;54;21089;-80
2022/08/31 07:27:24;;;;;;;1.27;1.08;;;;;;;;;;2542424;54;21058;-80
2022/08/31 07:29:51;;;;;;;1.20;1.10;;;;;;;;;;2305243;58;21133;-80
2022/08/31 07:32:18;;;;;;;2.30;1.05;;;;;;;;;;2304894;58;21054;-80
2022/08/31 07:34:45;;;;;;;1.15;0.73;;;;;;;;;;2303891;58;21225;-79
2022/08/31 07:42:45;;;;;;;3.08;0.80;;;;;;;;;;2305163;58;21038;-80
2022/08/31 07:45:21;;;;;;;0.77;0.70;;;;;;;;;;2542779;54;21054;-79
2022/08/31 07:47:48;;;;;;;0.93;0.80;;;;;;;;;;2542793;54;21074;-80
2022/08/31 07:50:17;;;;;;;0.70;0.70;;;;;;;;;;2542721;54;21074;-80
2022/08/31 07:52:53;;;;;;;1.00;0.70;;;;;;;;;;2542992;54;21118;-80
2022/08/31 07:55:21;;;;;;;1.67;0.70;;;;;;;;;;2305054;58;21086;-78
2022/08/31 07:57:49;;;;;;;1.15;0.80;;;;;;;;;;2541978;54;21130;-80
2022/08/31 08:00:19;;;;;;;1.17;0.62;;;;;;;;;;2305288;58;21098;-80
2022/08/31 08:02:47;;;;;;;1.55;0.70;;;;;;;;;;2304921;58;21050;-80
2022/08/31 08:05:19;;;;;;;1.10;0.62;;;;;;;;;;2542286;54;21166;-78
2022/08/31 08:07:48;;;;;;;1.25;0.90;;;;;;;;;;2543189;54;21050;-80
2022/08/31 08:10:16;;;;;;;1.48;0.80;;;;;;;;;;2542800;54;21110;-80
2022/08/31 08:12:45;;;;;;;1.80;0.90;;;;;;;;;;2305263;58;21054;-80
2022/08/31 08:15:12;;;;;;;2.33;0.85;;;;;;;;;;2303997;58;21090;-80
2022/08/31 08:17:39;;;;;;;1.23;0.77;;;;;;;;;;2304783;58;21070;-80
2022/08/31 08:20:08;;;;;;;1.02;0.70;;;;;;;;;;2542975;54;21118;-80
2022/08/31 08:22:38;;;;;;;2.22;0.60;;;;;;;;;;2304868;58;21038;-80
2022/08/31 08:25:06;;;;;;;1.50;0.80;;;;;;;;;;2305126;58;21054;-80
2022/08/31 08:27:33;;;;;;;2.10;0.70;;;;;;;;;;2542911;54;21583;-80
2022/08/31 08:30:00;;;;;;;0.60;0.60;;;;;;;;;;2542365;54;21067;-80
2022/08/31 08:32:30;;;;;;;1.52;0.80;;;;;;;;;;2304854;58;21093;-79
2022/08/31 08:34:57;;;;;;;1.80;0.65;;;;;;;;;;2541370;54;21126;-80
2022/08/31 08:37:26;;;;;;;0.95;0.60;;;;;;;;;;2542491;54;21126;-80
2022/08/31 08:39:54;;;;;;;1.08;0.60;;;;;;;;;;2304612;58;21058;-80
2022/08/31 08:42:22;;;;;;;1.62;0.70;;;;;;;;;;2305038;58;21046;-80
2022/08/31 08:44:49;;;;;;;0.68;0.50;;;;;;;;;;2542060;54;21173;-80
2022/08/31 08:47:21;;;;;;;0.68;0.60;;;;;;;;;;2542287;54;21072;-80
2022/08/31 08:49:50;;;;;;;0.40;0.40;;;;;;;;;;2542991;54;21082;-80
2022/08/31 08:52:20;;;;;;;1.27;0.75;;;;;;;;;;2543056;54;21134;-80
2022/08/31 08:54:48;;;;;;;0.52;0.50;;;;;;;;;;2304575;58;21062;-79
2022/08/31 08:57:18;;;;;;;0.98;0.60;;;;;;;;;;2542163;54;21086;-80
2022/08/31 08:59:46;;;;;;;2.12;0.82;;;;;;;;;;2542504;54;21567;-80
2022/08/31 09:02:16;;;;;;;0.77;0.68;;;;;;;;;;2542169;54;21062;-80
2022/08/31 09:04:58;;;;;;;0.88;0.60;;;;;;;;;;2305179;58;21118;-80
2022/08/31 09:07:37;;;;;;;1.27;0.60;;;;;;;;;;2304825;58;21038;-80
2022/08/31 09:10:09;;;;;;;1.20;0.60;;;;;;;;;;2305168;58;21050;-79
2022/08/31 09:12:43;;;;;;;0.73;0.60;;;;;;;;;;2305058;58;21515;-79
2022/08/31 09:15:26;;;;;;;0.50;0.50;;;;;;;;;;2304775;58;21078;-80
2022/08/31 09:17:57;;;;;;;2.20;0.68;;;;;;;;;;2304053;58;21075;-79
2022/08/31 09:20:27;;;;;;;1.75;0.50;;;;;;;;;;2541148;54;21098;-79
2022/08/31 09:22:56;;;;;;;1.20;0.73;;;;;;;;;;2541860;54;21086;-79
2022/08/31 09:25:28;;;;;;;0.60;0.60;;;;;;;;;;2541706;54;21106;-80
2022/08/31 09:27:57;;;;;;;0.60;0.60;;;;;;;;;;2543082;54;21118;-79
2022/08/31 09:30:39;;;;;;;1.17;0.52;;;;;;;;;;2305010;58;21167;-80
2022/08/31 09:33:07;;;;;;;0.40;0.32;;;;;;;;;;2304642;58;21086;-80
2022/08/31 09:35:40;;;;;;;1.58;0.50;;;;;;;;;;2304622;58;21071;-79
2022/08/31 09:38:09;;;;;;;1.17;0.60;;;;;;;;;;2305478;58;21118;-79
2022/08/31 09:40:39;;;;;;;0.80;0.62;;;;;;;;;;2542589;54;21060;-80
2022/08/31 09:43:08;;;;;;;1.00;0.77;;;;;;;;;;2542986;54;21066;-80
2022/08/31 09:45:35;;;;;;;1.77;0.82;;;;;;;;;;2542415;54;21110;-79
2022/08/31 09:48:04;;;;;;;0.90;0.60;;;;;;;;;;2542396;54;21042;-79
2022/08/31 09:50:33;;;;;;;1.42;0.77;;;;;;;;;;2542588;54;21622;-79
2022/08/31 09:56:13;;;;;;;1.30;0.73;;;;;;;;;;2304820;58;21010;-80
2022/08/31 09:58:41;;;;;;;2.92;0.70;;;;;;;;;;2543104;54;21070;-79
2022/08/31 10:01:13;;;;;;;0.70;0.55;;;;;;;;;;2305154;58;21102;-79
2022/08/31 10:03:45;;;;;;;1.60;0.62;;;;;;;;;;2542828;54;21071;-79
2022/08/31 10:06:43;;;;;;;2.35;0.60;;;;;;;;;;2303800;58;21138;-80
2022/08/31 10:09:14;;;;;;;1.20;0.50;;;;;;;;;;2542600;54;21105;-80
2022/08/31 10:11:43;;;;;;;1.02;0.50;;;;;;;;;;2542877;54;21062;-81
2022/08/31 10:14:20;;;;;;;0.90;0.47;;;;;;;;;;2542749;54;21155;-80
2022/08/31 10:16:51;;;;;;;1.35;0.65;;;;;;;;;;2304463;58;21461;-80
2022/08/31 10:19:20;;;;;;;0.60;0.50;;;;;;;;;;2542634;54;21097;-80
2022/08/31 10:21:50;;;;;;;2.08;0.73;;;;;;;;;;2542757;54;21563;-80
2022/08/31 10:24:27;;;;;;;1.52;0.60;;;;;;;;;;2543000;54;21103;-80
2022/08/31 10:26:56;;;;;;;1.33;0.60;;;;;;;;;;2304503;58;21069;-80
2022/08/31 10:29:28;;;;;;;1.58;0.80;;;;;;;;;;2305412;58;21049;-80
2022/08/31 10:31:57;;;;;;;0.80;0.68;;;;;;;;;;2305234;58;21169;-80
2022/08/31 10:37:14;;;;;;;0.50;0.50;;;;;;;;;;2304226;58;21034;-80
2022/08/31 10:39:45;;;;;;;0.57;0.50;;;;;;;;;;2541499;54;21110;-80
2022/08/31 10:42:17;;;;;;;2.80;0.75;;;;;;;;;;2542285;54;21043;-80
2022/08/31 10:44:55;;;;;;;1.92;0.77;;;;;;;;;;2542861;54;21074;-80
2022/08/31 10:47:23;;;;;;;1.92;0.68;;;;;;;;;;2542474;54;21157;-80
2022/08/31 10:49:51;;;;;;;0.98;0.62;;;;;;;;;;2305277;58;21089;-80
2022/08/31 10:52:31;;;;;;;0.62;0.60;;;;;;;;;;2305237;58;21157;-80
2022/08/31 10:55:05;;;;;;;3.72;0.50;;;;;;;;;;2305101;58;21062;-80
2022/08/31 10:57:39;;;;;;;1.12;0.60;;;;;;;;;;2542514;54;21146;-80
2022/08/31 11:00:07;;;;;;;1.40;0.60;;;;;;;;;;2305413;58;21034;-80
2022/08/31 11:02:39;;;;;;;0.75;0.50;;;;;;;;;;2305204;58;21090;-80
2022/08/31 11:05:30;;;;;;;0.50;0.50;;;;;;;;;;2305237;58;21070;-80
2022/08/31 11:08:02;;;;;;;0.60;0.50;;;;;;;;;;2530273;54;21055;-80
2022/08/31 11:10:36;;;;;;;1.05;0.70;;;;;;;;;;2304898;58;21090;-80
2022/08/31 11:13:02;;;;;;;;;;;;;;;;;;2546812;54;21128;-80
2022/08/31 11:15:48;;;;;;;1.75;0.70;;;;;;;;;;2542396;54;20482;-80
2022/08/31 11:18:39;;;;;;;1.40;0.80;;;;;;;;;;2305245;58;21554;-80
2022/08/31 11:21:27;;;;;;;0.40;0.40;;;;;;;;;;2305275;58;21122;-80
2022/08/31 11:24:00;;;;;;;0.80;0.57;;;;;;;;;;2304755;58;21599;-80
2022/08/31 11:26:39;;;;;;;0.70;0.53;;;;;;;;;;2304958;58;21070;-80
2022/08/31 11:29:12;;;;;;;0.70;0.70;;;;;;;;;;2542879;54;21602;-82
2022/08/31 11:31:39;;;;;;;0.62;0.52;;;;;;;;;;2305191;58;21077;-80
2022/08/31 11:34:11;;;;;;;1.52;0.70;;;;;;;;;;2305328;58;21127;-80
2022/08/31 11:36:42;;;;;;;1.02;0.75;;;;;;;;;;2542468;54;21141;-80
2022/08/31 11:39:20;;;;;;;1.30;0.70;;;;;;;;;;2304721;58;21387;-80
2022/08/31 11:41:48;;;;;;;0.60;0.40;;;;;;;;;;2542629;54;21062;-80
2022/08/31 11:44:35;;;;;;;2.42;0.80;;;;;;;;;;2542980;54;21125;-80
2022/08/31 11:47:05;;;;;;;1.95;0.80;;;;;;;;;;2304483;58;21074;-80
2022/08/31 11:49:50;;;;;;;0.80;0.68;;;;;;;;;;2542772;54;21059;-80
2022/08/31 11:52:42;;;;;;;1.08;0.55;;;;;;;;;;2305263;58;21618;-80
2022/08/31 11:55:28;;;;;;;1.58;0.60;;;;;;;;;;2301980;58;21066;-80
2022/08/31 11:58:21;;;;;;;1.62;0.60;;;;;;;;;;2304542;58;21093;-80
2022/08/31 12:00:56;;;;;;;1.15;0.55;;;;;;;;;;2304956;58;21046;-80
2022/08/31 12:03:42;;;;;;;0.73;0.60;;;;;;;;;;2542873;54;21102;-80
2022/08/31 12:06:11;;;;;;;0.80;0.60;;;;;;;;;;2304877;58;21077;-80
2022/08/31 12:08:51;;;;;;;0.68;0.65;;;;;;;;;;2543028;54;21450;-80
2022/08/31 12:11:23;;;;;;;0.50;0.50;;;;;;;;;;2305109;58;21066;-80
2022/08/31 12:13:53;;;;;;;1.00;0.50;;;;;;;;;;2304968;58;21074;-80
2022/08/31 12:16:38;;;;;;;1.42;0.80;;;;;;;;;;2541664;54;21130;-80
2022/08/31 12:25:14;;;;;;;0.62;0.62;;;;;;;;;;2305059;58;21003;-80
2022/08/31 12:27:45;;;;;;;1.17;0.80;;;;;;;;;;2305143;58;21073;-80
2022/08/31 12:30:16;;;;;;;0.60;0.60;;;;;;;;;;2305019;58;21054;-80
2022/08/31 12:32:45;;;;;;;1.17;0.82;;;;;;;;;;2305141;58;21050;-79
2022/08/31 12:35:15;;;;;;;1.02;0.65;;;;;;;;;;2305087;58;21558;-80
2022/08/31 12:37:42;;;;;;;0.93;0.70;;;;;;;;;;2305152;58;21158;-80
2022/08/31 12:40:16;;;;;;;1.70;0.70;;;;;;;;;;2542655;54;21134;-80
2022/08/31 12:42:49;;;;;;;0.45;0.43;;;;;;;;;;2543070;54;21678;-80
2022/08/31 12:45:17;;;;;;;0.52;0.50;;;;;;;;;;2304620;58;21055;-80
2022/08/31 12:47:49;;;;;;;1.65;0.77;;;;;;;;;;2304819;58;21058;-80
2022/08/31 12:50:18;;;;;;;0.67;0.53;;;;;;;;;;2542973;54;21519;-79
2022/08/31 12:52:52;;;;;;;0.45;0.45;;;;;;;;;;2304590;58;21070;-80
2022/08/31 12:55:32;;;;;;;0.75;0.50;;;;;;;;;;2304674;58;21177;-79
2022/08/31 12:58:10;;;;;;;0.55;0.50;;;;;;;;;;2542678;54;21047;-80
2022/08/31 13:00:38;;;;;;;1.20;0.50;;;;;;;;;;2541740;54;21102;-81
2022/08/31 13:03:17;;;;;;;2.12;0.77;;;;;;;;;;2304645;58;21058;-81
2022/08/31 13:05:59;;;;;;;0.82;0.60;;;;;;;;;;2371831;54;70211;-78
2022/08/31 13:08:26;;;;;;;1.48;0.70;;;;;;;;;;2302879;58;21110;-77
2022/08/31 13:10:53;;;;;;;0.93;0.55;;;;;;;;;;2302400;58;21139;-77
2022/08/31 13:13:22;;;;;;;1.10;0.65;;;;;;;;;;2317003;57;21120;-77
2022/08/31 13:15:49;;;;;;;0.70;0.60;;;;;;;;;;2329260;57;21111;-78
2022/08/31 13:18:19;;;;;;;0.70;0.50;;;;;;;;;;2328912;57;21049;-77
2022/08/31 13:20:47;;;;;;;1.23;0.70;;;;;;;;;;2329508;57;21564;-78
2022/08/31 13:23:16;;;;;;;1.33;0.57;;;;;;;;;;2329399;57;21551;-78
2022/08/31 13:25:47;;;;;;;0.90;0.60;;;;;;;;;;2571895;53;21057;-78
2022/08/31 13:28:21;;;;;;;1.00;0.57;;;;;;;;;;2329365;57;21146;-77
2022/08/31 13:30:56;;;;;;;0.85;0.73;;;;;;;;;;2329789;57;21097;-77
2022/08/31 13:33:25;;;;;;;0.70;0.57;;;;;;;;;;2329627;57;21041;-77
2022/08/31 13:35:55;;;;;;;0.80;0.60;;;;;;;;;;2329236;57;21068;-77
2022/08/31 13:38:38;;;;;;;1.17;0.50;;;;;;;;;;2329244;57;21150;-78
2022/08/31 13:41:09;;;;;;;0.75;0.50;;;;;;;;;;2329617;57;21053;-77
2022/08/31 13:43:36;;;;;;;0.70;0.40;;;;;;;;;;2329884;57;21052;-77
2022/08/31 13:46:03;;;;;;;1.25;0.68;;;;;;;;;;2329578;57;21124;-77
2022/08/31 13:48:32;;;;;;;1.40;0.60;;;;;;;;;;2329852;57;21121;-78
2022/08/31 13:51:01;;;;;;;1.62;0.60;;;;;;;;;;2329787;57;21045;-77
2022/08/31 13:53:36;;;;;;;2.28;0.70;;;;;;;;;;2572427;53;21593;-78
2022/08/31 13:56:53;;;;;;;1.23;0.80;;;;;;;;;;2329031;57;21144;-77
2022/08/31 13:59:34;;;;;;;1.08;0.50;;;;;;;;;;2328709;57;21073;-77
2022/08/31 14:02:03;;;;;;;0.93;0.57;;;;;;;;;;2328979;57;21073;-77
2022/08/31 14:04:37;;;;;;;0.90;0.60;;;;;;;;;;2328961;57;21061;-77
2022/08/31 14:07:05;;;;;;;0.73;0.65;;;;;;;;;;2329128;57;21125;-78
2022/08/31 14:09:32;;;;;;;2.90;0.70;;;;;;;;;;2328573;57;21065;-77
2022/08/31 14:12:04;;;;;;;6.25;0.70;;;;;;;;;;2329666;57;21148;-77
2022/08/31 14:14:39;;;;;;;1.17;0.55;;;;;;;;;;2329628;57;21068;-77
2022/08/31 14:17:07;;;;;;;1.65;0.60;;;;;;;;;;2572654;54;21065;-78
2022/08/31 14:19:37;;;;;;;2.47;0.70;;;;;;;;;;2329652;57;21061;-77
2022/08/31 14:22:15;;;;;;;1.27;0.70;;;;;;;;;;2329285;57;21037;-77
2022/08/31 14:24:42;;;;;;;1.33;0.43;;;;;;;;;;2327064;57;21068;-77
2022/08/31 14:27:10;;;;;;;0.80;0.60;;;;;;;;;;2328907;57;21164;-77
2022/08/31 14:29:39;;;;;;;2.25;0.90;;;;;;;;;;2330084;57;21061;-78
2022/08/31 14:32:06;;;;;;;1.48;0.77;;;;;;;;;;2329840;57;21123;-78
2022/08/31 14:34:34;;;;;;;0.60;0.50;;;;;;;;;;2329047;57;21045;-77
2022/08/31 14:37:05;;;;;;;1.70;0.70;;;;;;;;;;2328970;57;21045;-78
2022/08/31 14:39:33;;;;;;;0.70;0.60;;;;;;;;;;2329779;57;21049;-77
2022/08/31 14:42:02;;;;;;;1.27;0.60;;;;;;;;;;2329744;57;21073;-78
2022/08/31 14:44:30;;;;;;;1.00;0.70;;;;;;;;;;2329709;57;21057;-77
2022/08/31 14:46:58;;;;;;;0.98;0.88;;;;;;;;;;2329001;57;21611;-78
2022/08/31 14:49:25;;;;;;;2.00;0.60;;;;;;;;;;2329214;57;21049;-78
2022/08/31 14:51:52;;;;;;;0.62;0.50;;;;;;;;;;2329181;57;21149;-77
2022/08/31 14:54:19;;;;;;;5.85;0.82;;;;;;;;;;2329361;57;21108;-77
2022/08/31 14:56:49;;;;;;;0.52;0.40;;;;;;;;;;2329068;57;21113;-77
2022/08/31 14:59:18;;;;;;;0.98;0.57;;;;;;;;;;2329028;57;21137;-78
2022/08/31 15:01:45;;;;;;;1.75;0.45;;;;;;;;;;2329868;57;21053;-77
2022/08/31 15:04:14;;;;;;;0.68;0.43;;;;;;;;;;2329450;57;21571;-77
2022/08/31 15:06:42;;;;;;;1.85;0.73;;;;;;;;;;2329296;57;21049;-77
2022/08/31 15:09:09;;;;;;;0.82;0.65;;;;;;;;;;2329068;57;21116;-77
2022/08/31 15:11:38;;;;;;;1.17;0.65;;;;;;;;;;2329480;57;21069;-77
2022/08/31 15:14:11;;;;;;;1.80;0.70;;;;;;;;;;2329117;57;21057;-77
2022/08/31 15:16:40;;;;;;;1.43;0.70;;;;;;;;;;2329533;57;21113;-77
2022/08/31 15:19:10;;;;;;;2.35;0.75;;;;;;;;;;2329256;57;21061;-77
2022/08/31 15:21:46;;;;;;;1.40;0.80;;;;;;;;;;2329693;57;21049;-77